createdAt,value
2022-10-02T00:02:35.302Z,93367.56
2022-10-02T00:17:40.502Z,93372.53
2022-10-02T00:32:47.728Z,93393.94
2022-10-02T00:47:52.170Z,93409.78
2022-10-02T01:03:05.777Z,93416.81
2022-10-02T01:18:07.572Z,93452.03
2022-10-02T01:33:09.613Z,93458.16
2022-10-02T01:48:13.866Z,93469.53
2022-10-02T02:03:24.402Z,93474.25
2022-10-02T02:18:33.055Z,93487.50
2022-10-02T02:33:42.008Z,93512.66
2022-10-02T02:48:45.941Z,93517.50
2022-10-02T03:03:47.815Z,93556.19
2022-10-02T03:19:02.325Z,93577.56
2022-10-02T03:34:04.353Z,93617.03
2022-10-02T03:49:05.843Z,93612.69
2022-10-02T04:04:14.204Z,93630.56
2022-10-02T04:19:39.293Z,93654.16
2022-10-02T04:34:41.377Z,93669.66
2022-10-02T04:49:45.898Z,93696.72
2022-10-02T05:04:50.746Z,93718.00
2022-10-02T05:19:57.735Z,93717.16
2022-10-02T05:35:17.881Z,93700.75
2022-10-02T05:50:21.547Z,93731.38
2022-10-02T06:05:22.966Z,93736.50
2022-10-02T06:20:29.055Z,93769.22
2022-10-02T06:35:43.099Z,93796.22
2022-10-02T06:50:47.742Z,93819.19
2022-10-02T07:05:57.977Z,93826.47
2022-10-02T07:21:05.303Z,93864.78
2022-10-02T07:36:12.119Z,93856.88
2022-10-02T07:51:41.411Z,93869.94
2022-10-02T08:06:47.073Z,93881.22
2022-10-02T08:21:50.259Z,93901.22
2022-10-02T08:37:08.590Z,93876.91
2022-10-02T08:52:28.641Z,93862.66
2022-10-02T09:07:39.637Z,93882.44
2022-10-02T09:22:56.487Z,93873.81
2022-10-02T09:38:11.002Z,93868.84
2022-10-02T09:53:12.435Z,93882.66
2022-10-02T10:08:16.773Z,93878.25
2022-10-02T10:23:36.914Z,93869.91
2022-10-02T10:38:49.607Z,93839.03
2022-10-02T10:54:08.578Z,93850.84
2022-10-02T11:09:36.701Z,93845.56
2022-10-02T11:24:38.117Z,93841.78
2022-10-02T11:39:48.412Z,93848.28
2022-10-02T11:54:56.345Z,93816.56
2022-10-02T12:09:57.759Z,93867.81
2022-10-02T12:25:36.873Z,93858.88
2022-10-02T12:40:43.781Z,93834.13
2022-10-02T12:55:48.161Z,93853.56
2022-10-02T13:11:08.010Z,93863.16
2022-10-02T13:26:23.419Z,93861.53
2022-10-02T13:41:32.834Z,93872.97
2022-10-02T13:56:43.983Z,93877.72
2022-10-02T14:11:56.367Z,93853.28
2022-10-02T14:26:57.816Z,93829.63
2022-10-02T14:42:14.600Z,93820.13
2022-10-02T14:57:19.653Z,93799.56
2022-10-02T15:12:21.216Z,93804.84
2022-10-02T15:27:23.064Z,93805.88
2022-10-02T15:42:49.405Z,93812.41
2022-10-02T15:57:57.598Z,93815.97
2022-10-02T16:13:02.097Z,93808.41
2022-10-02T16:28:15.553Z,93800.84
2022-10-02T16:43:19.802Z,93792.41
2022-10-02T16:58:28.403Z,93807.91
2022-10-02T17:13:34.284Z,93810.34
2022-10-02T17:28:36.943Z,93797.88
2022-10-02T17:44:04.912Z,93784.53
2022-10-02T17:59:12.229Z,93806.63
2022-10-02T18:14:17.123Z,93802.09
2022-10-02T18:29:18.568Z,93791.81
2022-10-02T18:44:26.205Z,93791.50
2022-10-02T18:59:30.443Z,93782.06
2022-10-02T19:14:36.839Z,93767.63
2022-10-02T19:29:58.813Z,93771.84
2022-10-02T19:45:03.049Z,93770.84
2022-10-02T20:00:07.892Z,93764.50
2022-10-02T20:15:41.410Z,93760.00
2022-10-02T20:30:48.750Z,93749.31
2022-10-02T20:46:09.023Z,93758.88
2022-10-02T21:01:14.920Z,93728.75
2022-10-02T21:16:38.050Z,93732.81
2022-10-02T21:31:39.764Z,93723.41
2022-10-02T21:46:56.214Z,93729.56
2022-10-02T22:16:13.932Z,93710.88
2022-10-02T22:31:28.270Z,93707.41
2022-10-02T22:46:41.308Z,93716.91
2022-10-02T23:01:53.767Z,93694.78
2022-10-02T23:17:06.016Z,93691.81
2022-10-02T23:32:13.534Z,93660.19
2022-10-02T23:47:29.968Z,93641.69
